sensor_id;sensor_type;location;lat;lon;timestamp;pressure;altitude;pressure_sealevel;temperature
70533;BMP180;58088;51.186;17.130;2023-07-31T00:01:57;99942.60;;;19.50
70533;BMP180;58088;51.186;17.130;2023-07-31T00:04:24;99948.40;;;19.50
70533;BMP180;58088;51.186;17.130;2023-07-31T00:06:50;99946.20;;;19.50
70533;BMP180;58088;51.186;17.130;2023-07-31T00:09:16;99950.40;;;19.50
70533;BMP180;58088;51.186;17.130;2023-07-31T00:11:43;99942.60;;;19.50
70533;BMP180;58088;51.186;17.130;2023-07-31T00:14:09;99944.60;;;19.50
70533;BMP180;58088;51.186;17.130;2023-07-31T00:16:35;99949.80;;;19.50
70533;BMP180;58088;51.186;17.130;2023-07-31T00:19:01;99945.60;;;19.50
70533;BMP180;58088;51.186;17.130;2023-07-31T00:21:28;99949.40;;;19.50
70533;BMP180;58088;51.186;17.130;2023-07-31T00:23:54;99952.40;;;19.50
70533;BMP180;58088;51.186;17.130;2023-07-31T00:26:20;99949.40;;;19.48
70533;BMP180;58088;51.186;17.130;2023-07-31T00:28:46;99948.20;;;19.40
70533;BMP180;58088;51.186;17.130;2023-07-31T00:31:15;99954.60;;;19.42
70533;BMP180;58088;51.186;17.130;2023-07-31T00:33:41;99953.80;;;19.40
70533;BMP180;58088;51.186;17.130;2023-07-31T00:36:07;99950.80;;;19.44
70533;BMP180;58088;51.186;17.130;2023-07-31T00:38:33;99952.00;;;19.50
70533;BMP180;58088;51.186;17.130;2023-07-31T00:40:59;99953.40;;;19.50
70533;BMP180;58088;51.186;17.130;2023-07-31T00:43:26;99947.60;;;19.52
70533;BMP180;58088;51.186;17.130;2023-07-31T00:45:52;99952.80;;;19.60
70533;BMP180;58088;51.186;17.130;2023-07-31T00:48:18;99950.60;;;19.50
70533;BMP180;58088;51.186;17.130;2023-07-31T00:50:45;99951.80;;;19.50
70533;BMP180;58088;51.186;17.130;2023-07-31T00:53:15;99953.40;;;19.50
70533;BMP180;58088;51.186;17.130;2023-07-31T00:55:44;99953.60;;;19.40
70533;BMP180;58088;51.186;17.130;2023-07-31T00:58:12;99955.00;;;19.40
70533;BMP180;58088;51.186;17.130;2023-07-31T01:00:39;99962.00;;;19.40
70533;BMP180;58088;51.186;17.130;2023-07-31T01:03:06;99957.80;;;19.40
70533;BMP180;58088;51.186;17.130;2023-07-31T01:09:00;99944.60;;;19.40
70533;BMP180;58088;51.186;17.130;2023-07-31T01:11:33;99953.20;;;19.40
70533;BMP180;58088;51.186;17.130;2023-07-31T01:14:00;99951.60;;;19.40
70533;BMP180;58088;51.186;17.130;2023-07-31T01:16:26;99953.40;;;19.38
70533;BMP180;58088;51.186;17.130;2023-07-31T01:18:53;99955.00;;;19.30
70533;BMP180;58088;51.186;17.130;2023-07-31T01:24:50;99958.20;;;19.30
70533;BMP180;58088;51.186;17.130;2023-07-31T01:27:29;99954.80;;;19.30
70533;BMP180;58088;51.186;17.130;2023-07-31T01:30:05;99956.40;;;19.30
70533;BMP180;58088;51.186;17.130;2023-07-31T01:32:42;99954.00;;;19.30
70533;BMP180;58088;51.186;17.130;2023-07-31T01:35:09;99953.00;;;19.20
70533;BMP180;58088;51.186;17.130;2023-07-31T01:37:36;99955.20;;;19.20
70533;BMP180;58088;51.186;17.130;2023-07-31T01:40:03;99960.20;;;19.10
70533;BMP180;58088;51.186;17.130;2023-07-31T01:42:30;99960.00;;;19.10
70533;BMP180;58088;51.186;17.130;2023-07-31T01:44:56;99955.20;;;19.10
70533;BMP180;58088;51.186;17.130;2023-07-31T01:47:23;99955.00;;;19.10
70533;BMP180;58088;51.186;17.130;2023-07-31T01:49:50;99953.40;;;19.10
70533;BMP180;58088;51.186;17.130;2023-07-31T01:52:16;99954.80;;;19.06
70533;BMP180;58088;51.186;17.130;2023-07-31T01:54:42;99956.00;;;19.00
70533;BMP180;58088;51.186;17.130;2023-07-31T01:57:08;99952.00;;;19.00
70533;BMP180;58088;51.186;17.130;2023-07-31T01:59:34;99950.20;;;19.00
70533;BMP180;58088;51.186;17.130;2023-07-31T02:02:13;99950.80;;;18.90
70533;BMP180;58088;51.186;17.130;2023-07-31T02:04:57;99945.00;;;18.90
70533;BMP180;58088;51.186;17.130;2023-07-31T02:07:31;99950.60;;;18.90
70533;BMP180;58088;51.186;17.130;2023-07-31T02:09:58;99945.20;;;18.90
70533;BMP180;58088;51.186;17.130;2023-07-31T02:12:24;99943.40;;;18.90
70533;BMP180;58088;51.186;17.130;2023-07-31T02:14:51;99943.60;;;18.90
70533;BMP180;58088;51.186;17.130;2023-07-31T02:17:17;99941.40;;;18.90
70533;BMP180;58088;51.186;17.130;2023-07-31T02:19:43;99936.40;;;18.90
70533;BMP180;58088;51.186;17.130;2023-07-31T02:22:09;99943.60;;;18.90
70533;BMP180;58088;51.186;17.130;2023-07-31T02:24:35;99946.80;;;18.90
70533;BMP180;58088;51.186;17.130;2023-07-31T02:27:02;99949.80;;;18.90
70533;BMP180;58088;51.186;17.130;2023-07-31T02:29:28;99952.00;;;18.90
70533;BMP180;58088;51.186;17.130;2023-07-31T02:31:55;99951.20;;;18.96
70533;BMP180;58088;51.186;17.130;2023-07-31T02:34:21;99948.80;;;19.00
70533;BMP180;58088;51.186;17.130;2023-07-31T02:36:47;99944.20;;;19.00
70533;BMP180;58088;51.186;17.130;2023-07-31T02:39:13;99944.40;;;18.96
70533;BMP180;58088;51.186;17.130;2023-07-31T02:41:39;99945.00;;;18.90
70533;BMP180;58088;51.186;17.130;2023-07-31T02:44:05;99946.20;;;18.90
70533;BMP180;58088;51.186;17.130;2023-07-31T02:46:31;99944.80;;;18.90
70533;BMP180;58088;51.186;17.130;2023-07-31T02:48:58;99947.20;;;18.90
70533;BMP180;58088;51.186;17.130;2023-07-31T02:51:24;99941.00;;;18.90
70533;BMP180;58088;51.186;17.130;2023-07-31T02:53:50;99942.00;;;18.90
70533;BMP180;58088;51.186;17.130;2023-07-31T02:56:16;99945.60;;;18.88
70533;BMP180;58088;51.186;17.130;2023-07-31T02:58:42;99935.80;;;18.80
70533;BMP180;58088;51.186;17.130;2023-07-31T03:01:08;99937.80;;;18.80
70533;BMP180;58088;51.186;17.130;2023-07-31T03:03:35;99938.20;;;18.80
70533;BMP180;58088;51.186;17.130;2023-07-31T03:06:01;99937.60;;;18.80
70533;BMP180;58088;51.186;17.130;2023-07-31T03:08:28;99941.20;;;18.80
70533;BMP180;58088;51.186;17.130;2023-07-31T03:10:54;99942.80;;;18.70
70533;BMP180;58088;51.186;17.130;2023-07-31T03:13:22;99946.20;;;18.70
70533;BMP180;58088;51.186;17.130;2023-07-31T03:15:48;99946.60;;;18.70
70533;BMP180;58088;51.186;17.130;2023-07-31T03:18:14;99944.80;;;18.70
70533;BMP180;58088;51.186;17.130;2023-07-31T03:20:44;99944.20;;;18.70
70533;BMP180;58088;51.186;17.130;2023-07-31T03:23:11;99947.20;;;18.60
70533;BMP180;58088;51.186;17.130;2023-07-31T03:25:37;99949.20;;;18.60
70533;BMP180;58088;51.186;17.130;2023-07-31T03:28:04;99953.00;;;18.60
70533;BMP180;58088;51.186;17.130;2023-07-31T03:30:30;99949.20;;;18.60
70533;BMP180;58088;51.186;17.130;2023-07-31T03:32:57;99948.00;;;18.60
70533;BMP180;58088;51.186;17.130;2023-07-31T03:35:24;99948.80;;;18.60
70533;BMP180;58088;51.186;17.130;2023-07-31T03:37:50;99954.00;;;18.56
70533;BMP180;58088;51.186;17.130;2023-07-31T03:40:16;99954.60;;;18.50
70533;BMP180;58088;51.186;17.130;2023-07-31T03:42:42;99955.60;;;18.50
70533;BMP180;58088;51.186;17.130;2023-07-31T03:45:10;99962.00;;;18.50
70533;BMP180;58088;51.186;17.130;2023-07-31T03:47:37;99959.00;;;18.50
70533;BMP180;58088;51.186;17.130;2023-07-31T03:50:03;99962.40;;;18.46
70533;BMP180;58088;51.186;17.130;2023-07-31T03:52:29;99962.00;;;18.50
70533;BMP180;58088;51.186;17.130;2023-07-31T03:54:56;99958.80;;;18.50
70533;BMP180;58088;51.186;17.130;2023-07-31T03:57:23;99957.80;;;18.52
70533;BMP180;58088;51.186;17.130;2023-07-31T03:59:49;99956.40;;;18.60
70533;BMP180;58088;51.186;17.130;2023-07-31T04:02:16;99953.40;;;18.60
70533;BMP180;58088;51.186;17.130;2023-07-31T04:04:45;99946.00;;;18.60
70533;BMP180;58088;51.186;17.130;2023-07-31T04:07:11;99947.20;;;18.60
70533;BMP180;58088;51.186;17.130;2023-07-31T04:09:38;99944.60;;;18.60
70533;BMP180;58088;51.186;17.130;2023-07-31T04:12:05;99946.60;;;18.60
70533;BMP180;58088;51.186;17.130;2023-07-31T04:14:31;99948.60;;;18.60
70533;BMP180;58088;51.186;17.130;2023-07-31T04:16:58;99951.60;;;18.60
70533;BMP180;58088;51.186;17.130;2023-07-31T04:19:24;99952.20;;;18.60
70533;BMP180;58088;51.186;17.130;2023-07-31T04:21:51;99951.40;;;18.60
70533;BMP180;58088;51.186;17.130;2023-07-31T04:24:17;99949.40;;;18.60
70533;BMP180;58088;51.186;17.130;2023-07-31T04:26:53;99950.60;;;18.70
70533;BMP180;58088;51.186;17.130;2023-07-31T04:29:23;99945.80;;;18.70
70533;BMP180;58088;51.186;17.130;2023-07-31T04:31:50;99947.60;;;18.70
70533;BMP180;58088;51.186;17.130;2023-07-31T04:34:16;99950.40;;;18.70
70533;BMP180;58088;51.186;17.130;2023-07-31T04:36:42;99948.80;;;18.74
70533;BMP180;58088;51.186;17.130;2023-07-31T04:39:08;99951.60;;;18.80
70533;BMP180;58088;51.186;17.130;2023-07-31T04:41:35;99947.00;;;18.86
70533;BMP180;58088;51.186;17.130;2023-07-31T04:44:01;99947.60;;;18.90
70533;BMP180;58088;51.186;17.130;2023-07-31T04:46:30;99946.40;;;19.00
70533;BMP180;58088;51.186;17.130;2023-07-31T04:48:56;99947.80;;;19.10
70533;BMP180;58088;51.186;17.130;2023-07-31T04:51:23;99957.60;;;19.30
70533;BMP180;58088;51.186;17.130;2023-07-31T04:53:49;99957.20;;;19.50
70533;BMP180;58088;51.186;17.130;2023-07-31T04:56:16;99948.60;;;19.62
70533;BMP180;58088;51.186;17.130;2023-07-31T04:58:42;99952.00;;;19.70
70533;BMP180;58088;51.186;17.130;2023-07-31T05:01:08;99951.00;;;19.80
70533;BMP180;58088;51.186;17.130;2023-07-31T05:03:35;99957.60;;;19.90
70533;BMP180;58088;51.186;17.130;2023-07-31T05:06:01;99955.80;;;20.08
70533;BMP180;58088;51.186;17.130;2023-07-31T05:08:33;99955.20;;;20.26
70533;BMP180;58088;51.186;17.130;2023-07-31T05:11:00;99957.20;;;20.40
70533;BMP180;58088;51.186;17.130;2023-07-31T05:13:27;99958.60;;;20.50
70533;BMP180;58088;51.186;17.130;2023-07-31T05:15:53;99958.40;;;20.60
70533;BMP180;58088;51.186;17.130;2023-07-31T05:18:19;99964.60;;;20.60
70533;BMP180;58088;51.186;17.130;2023-07-31T05:20:46;99964.60;;;20.70
70533;BMP180;58088;51.186;17.130;2023-07-31T05:23:12;99962.40;;;20.76
70533;BMP180;58088;51.186;17.130;2023-07-31T05:25:39;99963.40;;;20.80
70533;BMP180;58088;51.186;17.130;2023-07-31T05:28:05;99958.80;;;20.90
70533;BMP180;58088;51.186;17.130;2023-07-31T05:30:31;99960.60;;;20.92
70533;BMP180;58088;51.186;17.130;2023-07-31T05:32:58;99963.00;;;21.00
70533;BMP180;58088;51.186;17.130;2023-07-31T05:35:24;99957.20;;;21.10
70533;BMP180;58088;51.186;17.130;2023-07-31T05:37:50;99960.20;;;21.16
70533;BMP180;58088;51.186;17.130;2023-07-31T05:40:17;99960.20;;;21.20
70533;BMP180;58088;51.186;17.130;2023-07-31T05:42:43;99962.20;;;21.30
70533;BMP180;58088;51.186;17.130;2023-07-31T05:45:10;99962.60;;;21.40
70533;BMP180;58088;51.186;17.130;2023-07-31T05:47:36;99960.40;;;21.40
70533;BMP180;58088;51.186;17.130;2023-07-31T05:50:02;99959.80;;;21.50
70533;BMP180;58088;51.186;17.130;2023-07-31T05:52:29;99956.20;;;21.50
70533;BMP180;58088;51.186;17.130;2023-07-31T05:54:55;99956.20;;;21.60
70533;BMP180;58088;51.186;17.130;2023-07-31T05:57:21;99962.80;;;21.60
70533;BMP180;58088;51.186;17.130;2023-07-31T05:59:47;99960.40;;;21.70
70533;BMP180;58088;51.186;17.130;2023-07-31T06:02:19;99956.20;;;21.80
70533;BMP180;58088;51.186;17.130;2023-07-31T06:04:45;99959.60;;;21.90
70533;BMP180;58088;51.186;17.130;2023-07-31T06:07:13;99960.00;;;22.00
70533;BMP180;58088;51.186;17.130;2023-07-31T06:09:40;99953.40;;;22.00
70533;BMP180;58088;51.186;17.130;2023-07-31T06:12:06;99961.60;;;22.04
70533;BMP180;58088;51.186;17.130;2023-07-31T06:14:39;99958.60;;;22.10
70533;BMP180;58088;51.186;17.130;2023-07-31T06:17:06;99962.80;;;22.20
70533;BMP180;58088;51.186;17.130;2023-07-31T06:19:33;99961.40;;;22.20
70533;BMP180;58088;51.186;17.130;2023-07-31T06:22:00;99951.20;;;22.24
70533;BMP180;58088;51.186;17.130;2023-07-31T06:24:30;99956.00;;;22.30
70533;BMP180;58088;51.186;17.130;2023-07-31T06:26:57;99956.60;;;22.40
70533;BMP180;58088;51.186;17.130;2023-07-31T06:29:24;99957.00;;;22.40
70533;BMP180;58088;51.186;17.130;2023-07-31T06:31:51;99954.60;;;22.40
70533;BMP180;58088;51.186;17.130;2023-07-31T06:34:18;99946.80;;;22.50
70533;BMP180;58088;51.186;17.130;2023-07-31T06:36:44;99952.40;;;22.50
70533;BMP180;58088;51.186;17.130;2023-07-31T06:39:11;99949.80;;;22.50
70533;BMP180;58088;51.186;17.130;2023-07-31T06:41:39;99951.60;;;22.50
70533;BMP180;58088;51.186;17.130;2023-07-31T06:44:09;99951.00;;;22.60
70533;BMP180;58088;51.186;17.130;2023-07-31T06:46:39;99950.00;;;22.70
70533;BMP180;58088;51.186;17.130;2023-07-31T06:49:06;99953.20;;;22.76
70533;BMP180;58088;51.186;17.130;2023-07-31T06:51:33;99953.20;;;22.82
70533;BMP180;58088;51.186;17.130;2023-07-31T06:53:59;99954.20;;;23.00
70533;BMP180;58088;51.186;17.130;2023-07-31T06:56:25;99950.80;;;23.00
70533;BMP180;58088;51.186;17.130;2023-07-31T06:58:52;99955.20;;;23.18
70533;BMP180;58088;51.186;17.130;2023-07-31T07:01:18;99958.20;;;23.24
70533;BMP180;58088;51.186;17.130;2023-07-31T07:03:44;99959.80;;;23.30
70533;BMP180;58088;51.186;17.130;2023-07-31T07:06:17;99952.00;;;23.30
70533;BMP180;58088;51.186;17.130;2023-07-31T07:08:43;99952.60;;;23.30
70533;BMP180;58088;51.186;17.130;2023-07-31T07:11:10;99951.60;;;23.30
70533;BMP180;58088;51.186;17.130;2023-07-31T07:13:36;99947.40;;;23.30
70533;BMP180;58088;51.186;17.130;2023-07-31T07:16:02;99947.00;;;23.40
70533;BMP180;58088;51.186;17.130;2023-07-31T07:18:29;99944.40;;;23.40
70533;BMP180;58088;51.186;17.130;2023-07-31T07:20:56;99945.00;;;23.34
70533;BMP180;58088;51.186;17.130;2023-07-31T07:23:24;99942.20;;;23.30
70533;BMP180;58088;51.186;17.130;2023-07-31T07:25:50;99941.80;;;23.38
70533;BMP180;58088;51.186;17.130;2023-07-31T07:28:17;99937.80;;;23.40
70533;BMP180;58088;51.186;17.130;2023-07-31T07:30:43;99936.00;;;23.36
70533;BMP180;58088;51.186;17.130;2023-07-31T07:33:09;99941.80;;;23.40
70533;BMP180;58088;51.186;17.130;2023-07-31T07:35:36;99938.20;;;23.50
70533;BMP180;58088;51.186;17.130;2023-07-31T07:38:03;99941.20;;;23.60
70533;BMP180;58088;51.186;17.130;2023-07-31T07:40:29;99936.00;;;23.70
70533;BMP180;58088;51.186;17.130;2023-07-31T07:42:56;99930.40;;;23.90
70533;BMP180;58088;51.186;17.130;2023-07-31T07:45:22;99924.00;;;24.00
70533;BMP180;58088;51.186;17.130;2023-07-31T07:47:48;99927.20;;;24.10
70533;BMP180;58088;51.186;17.130;2023-07-31T07:50:17;99922.40;;;24.34
70533;BMP180;58088;51.186;17.130;2023-07-31T07:52:43;99926.60;;;24.60
70533;BMP180;58088;51.186;17.130;2023-07-31T07:55:10;99930.40;;;24.90
70533;BMP180;58088;51.186;17.130;2023-07-31T07:57:36;99927.40;;;25.14
70533;BMP180;58088;51.186;17.130;2023-07-31T08:00:03;99928.60;;;25.38
70533;BMP180;58088;51.186;17.130;2023-07-31T08:02:47;99933.00;;;25.80
70533;BMP180;58088;51.186;17.130;2023-07-31T08:05:14;99934.40;;;26.24
70533;BMP180;58088;51.186;17.130;2023-07-31T08:07:40;99924.20;;;26.50
70533;BMP180;58088;51.186;17.130;2023-07-31T08:10:07;99927.60;;;26.60
70533;BMP180;58088;51.186;17.130;2023-07-31T08:12:33;99925.00;;;26.70
70533;BMP180;58088;51.186;17.130;2023-07-31T08:14:59;99920.80;;;26.70
70533;BMP180;58088;51.186;17.130;2023-07-31T08:17:26;99922.60;;;26.70
70533;BMP180;58088;51.186;17.130;2023-07-31T08:19:52;99922.60;;;26.70
70533;BMP180;58088;51.186;17.130;2023-07-31T08:22:18;99924.60;;;26.80
70533;BMP180;58088;51.186;17.130;2023-07-31T08:24:44;99924.40;;;26.90
70533;BMP180;58088;51.186;17.130;2023-07-31T08:27:10;99928.40;;;27.00
70533;BMP180;58088;51.186;17.130;2023-07-31T08:29:37;99930.60;;;27.22
70533;BMP180;58088;51.186;17.130;2023-07-31T08:32:03;99932.00;;;27.28
70533;BMP180;58088;51.186;17.130;2023-07-31T08:34:30;99935.00;;;27.30
70533;BMP180;58088;51.186;17.130;2023-07-31T08:36:56;99930.80;;;27.40
70533;BMP180;58088;51.186;17.130;2023-07-31T08:39:22;99932.60;;;27.30
70533;BMP180;58088;51.186;17.130;2023-07-31T08:41:48;99926.60;;;27.34
70533;BMP180;58088;51.186;17.130;2023-07-31T08:44:15;99932.60;;;27.40
70533;BMP180;58088;51.186;17.130;2023-07-31T08:46:43;99931.60;;;27.40
70533;BMP180;58088;51.186;17.130;2023-07-31T08:49:11;99930.20;;;27.40
70533;BMP180;58088;51.186;17.130;2023-07-31T08:51:37;99934.00;;;27.50
70533;BMP180;58088;51.186;17.130;2023-07-31T08:54:03;99923.60;;;27.46
70533;BMP180;58088;51.186;17.130;2023-07-31T08:56:32;99928.60;;;27.30
70533;BMP180;58088;51.186;17.130;2023-07-31T08:59:03;99924.40;;;27.10
70533;BMP180;58088;51.186;17.130;2023-07-31T09:01:36;99920.60;;;26.80
70533;BMP180;58088;51.186;17.130;2023-07-31T09:04:05;99928.60;;;26.56
70533;BMP180;58088;51.186;17.130;2023-07-31T09:06:33;99929.20;;;26.50
70533;BMP180;58088;51.186;17.130;2023-07-31T09:09:00;99927.00;;;26.40
70533;BMP180;58088;51.186;17.130;2023-07-31T09:11:26;99928.80;;;26.30
70533;BMP180;58088;51.186;17.130;2023-07-31T09:13:57;99934.20;;;26.20
70533;BMP180;58088;51.186;17.130;2023-07-31T09:16:33;99932.40;;;26.10
70533;BMP180;58088;51.186;17.130;2023-07-31T09:18:59;99924.20;;;26.08
70533;BMP180;58088;51.186;17.130;2023-07-31T09:21:28;99928.80;;;25.98
70533;BMP180;58088;51.186;17.130;2023-07-31T09:23:54;99922.80;;;25.90
70533;BMP180;58088;51.186;17.130;2023-07-31T09:26:36;99924.60;;;25.80
70533;BMP180;58088;51.186;17.130;2023-07-31T09:29:18;99925.40;;;25.80
70533;BMP180;58088;51.186;17.130;2023-07-31T09:31:45;99931.20;;;25.82
70533;BMP180;58088;51.186;17.130;2023-07-31T09:34:11;99931.80;;;25.80
70533;BMP180;58088;51.186;17.130;2023-07-31T09:36:50;99935.60;;;25.70
70533;BMP180;58088;51.186;17.130;2023-07-31T09:39:18;99938.80;;;25.56
70533;BMP180;58088;51.186;17.130;2023-07-31T09:41:54;99942.20;;;25.40
70533;BMP180;58088;51.186;17.130;2023-07-31T09:44:21;99942.60;;;25.20
70533;BMP180;58088;51.186;17.130;2023-07-31T09:46:48;99943.80;;;25.10
70533;BMP180;58088;51.186;17.130;2023-07-31T09:49:15;99940.60;;;24.90
70533;BMP180;58088;51.186;17.130;2023-07-31T09:51:42;99943.40;;;24.70
70533;BMP180;58088;51.186;17.130;2023-07-31T09:54:14;99946.00;;;24.60
70533;BMP180;58088;51.186;17.130;2023-07-31T09:56:44;99949.20;;;24.50
70533;BMP180;58088;51.186;17.130;2023-07-31T09:59:13;99946.20;;;24.40
70533;BMP180;58088;51.186;17.130;2023-07-31T10:01:41;99945.20;;;24.30
70533;BMP180;58088;51.186;17.130;2023-07-31T10:04:10;99947.00;;;24.26
70533;BMP180;58088;51.186;17.130;2023-07-31T10:06:38;99935.60;;;24.20
70533;BMP180;58088;51.186;17.130;2023-07-31T10:09:09;99932.20;;;24.20
70533;BMP180;58088;51.186;17.130;2023-07-31T10:11:53;99922.00;;;24.30
70533;BMP180;58088;51.186;17.130;2023-07-31T10:14:24;99919.80;;;24.40
70533;BMP180;58088;51.186;17.130;2023-07-31T10:16:51;99919.00;;;24.40
70533;BMP180;58088;51.186;17.130;2023-07-31T10:19:20;99918.00;;;24.50
70533;BMP180;58088;51.186;17.130;2023-07-31T10:21:49;99918.20;;;24.50
70533;BMP180;58088;51.186;17.130;2023-07-31T10:24:16;99916.40;;;24.50
70533;BMP180;58088;51.186;17.130;2023-07-31T10:26:47;99920.40;;;24.40
70533;BMP180;58088;51.186;17.130;2023-07-31T10:29:16;99915.00;;;24.24
70533;BMP180;58088;51.186;17.130;2023-07-31T10:31:45;99917.40;;;24.20
70533;BMP180;58088;51.186;17.130;2023-07-31T10:34:13;99920.40;;;24.20
70533;BMP180;58088;51.186;17.130;2023-07-31T10:36:39;99922.00;;;24.10
70533;BMP180;58088;51.186;17.130;2023-07-31T10:39:38;99925.40;;;24.08
70533;BMP180;58088;51.186;17.130;2023-07-31T10:42:13;99926.60;;;24.00
70533;BMP180;58088;51.186;17.130;2023-07-31T10:44:46;99921.00;;;24.00
70533;BMP180;58088;51.186;17.130;2023-07-31T10:47:15;99924.40;;;24.06
70533;BMP180;58088;51.186;17.130;2023-07-31T10:49:45;99920.60;;;24.00
70533;BMP180;58088;51.186;17.130;2023-07-31T10:52:13;99919.00;;;24.00
70533;BMP180;58088;51.186;17.130;2023-07-31T10:54:39;99919.20;;;24.18
70533;BMP180;58088;51.186;17.130;2023-07-31T10:57:22;99917.60;;;24.22
70533;BMP180;58088;51.186;17.130;2023-07-31T10:59:49;99916.80;;;24.30
70533;BMP180;58088;51.186;17.130;2023-07-31T11:02:26;99910.80;;;24.24
70533;BMP180;58088;51.186;17.130;2023-07-31T11:05:10;99904.00;;;24.20
70533;BMP180;58088;51.186;17.130;2023-07-31T11:07:50;99902.00;;;24.34
70533;BMP180;58088;51.186;17.130;2023-07-31T11:10:18;99891.60;;;24.50
70533;BMP180;58088;51.186;17.130;2023-07-31T11:12:45;99890.00;;;24.60
70533;BMP180;58088;51.186;17.130;2023-07-31T11:15:12;99894.80;;;24.60
70533;BMP180;58088;51.186;17.130;2023-07-31T11:17:39;99893.20;;;24.60
70533;BMP180;58088;51.186;17.130;2023-07-31T11:20:07;99890.00;;;24.60
70533;BMP180;58088;51.186;17.130;2023-07-31T11:22:37;99890.20;;;24.60
70533;BMP180;58088;51.186;17.130;2023-07-31T11:25:04;99886.80;;;24.50
70533;BMP180;58088;51.186;17.130;2023-07-31T11:27:30;99886.20;;;24.54
70533;BMP180;58088;51.186;17.130;2023-07-31T11:30:01;99884.80;;;24.60
70533;BMP180;58088;51.186;17.130;2023-07-31T11:32:27;99881.40;;;24.70
70533;BMP180;58088;51.186;17.130;2023-07-31T11:34:54;99884.20;;;24.70
70533;BMP180;58088;51.186;17.130;2023-07-31T11:37:22;99882.20;;;24.70
70533;BMP180;58088;51.186;17.130;2023-07-31T11:40:01;99877.00;;;24.80
70533;BMP180;58088;51.186;17.130;2023-07-31T11:42:27;99860.40;;;24.92
70533;BMP180;58088;51.186;17.130;2023-07-31T11:44:54;99852.20;;;25.10
70533;BMP180;58088;51.186;17.130;2023-07-31T11:47:20;99849.40;;;25.20
70533;BMP180;58088;51.186;17.130;2023-07-31T11:49:47;99837.80;;;25.30
70533;BMP180;58088;51.186;17.130;2023-07-31T11:52:15;99836.00;;;25.40
70533;BMP180;58088;51.186;17.130;2023-07-31T11:54:42;99833.20;;;25.50
70533;BMP180;58088;51.186;17.130;2023-07-31T11:57:08;99834.00;;;25.60
70533;BMP180;58088;51.186;17.130;2023-07-31T11:59:38;99836.80;;;25.60
70533;BMP180;58088;51.186;17.130;2023-07-31T12:02:05;99834.60;;;25.70
70533;BMP180;58088;51.186;17.130;2023-07-31T12:04:31;99835.60;;;25.90
70533;BMP180;58088;51.186;17.130;2023-07-31T12:07:00;99832.00;;;26.00
70533;BMP180;58088;51.186;17.130;2023-07-31T12:09:26;99833.00;;;26.10
70533;BMP180;58088;51.186;17.130;2023-07-31T12:11:53;99831.60;;;26.20
70533;BMP180;58088;51.186;17.130;2023-07-31T12:14:29;99826.00;;;26.30
70533;BMP180;58088;51.186;17.130;2023-07-31T12:17:03;99814.80;;;26.40
70533;BMP180;58088;51.186;17.130;2023-07-31T12:19:30;99816.00;;;26.50
70533;BMP180;58088;51.186;17.130;2023-07-31T12:21:58;99811.60;;;26.60
70533;BMP180;58088;51.186;17.130;2023-07-31T12:24:28;99808.40;;;26.50
70533;BMP180;58088;51.186;17.130;2023-07-31T12:26:55;99807.40;;;26.50
70533;BMP180;58088;51.186;17.130;2023-07-31T12:29:21;99803.00;;;26.50
70533;BMP180;58088;51.186;17.130;2023-07-31T12:31:47;99802.40;;;26.50
70533;BMP180;58088;51.186;17.130;2023-07-31T12:34:19;99795.20;;;26.50
70533;BMP180;58088;51.186;17.130;2023-07-31T12:36:47;99789.00;;;26.30
70533;BMP180;58088;51.186;17.130;2023-07-31T12:39:16;99789.20;;;26.30
70533;BMP180;58088;51.186;17.130;2023-07-31T12:41:42;99788.20;;;26.30
70533;BMP180;58088;51.186;17.130;2023-07-31T12:44:09;99780.80;;;26.30
70533;BMP180;58088;51.186;17.130;2023-07-31T12:46:36;99770.40;;;26.34
70533;BMP180;58088;51.186;17.130;2023-07-31T12:49:02;99769.60;;;26.30
70533;BMP180;58088;51.186;17.130;2023-07-31T12:51:28;99768.00;;;26.40
70533;BMP180;58088;51.186;17.130;2023-07-31T12:53:55;99769.80;;;26.40
70533;BMP180;58088;51.186;17.130;2023-07-31T12:56:21;99770.20;;;26.40
70533;BMP180;58088;51.186;17.130;2023-07-31T12:58:47;99766.40;;;26.50
70533;BMP180;58088;51.186;17.130;2023-07-31T13:01:13;99763.20;;;26.50
70533;BMP180;58088;51.186;17.130;2023-07-31T13:03:40;99761.80;;;26.50
70533;BMP180;58088;51.186;17.130;2023-07-31T13:06:06;99762.40;;;26.58
70533;BMP180;58088;51.186;17.130;2023-07-31T13:08:32;99759.60;;;26.50
70533;BMP180;58088;51.186;17.130;2023-07-31T13:10:59;99754.60;;;26.50
70533;BMP180;58088;51.186;17.130;2023-07-31T13:13:25;99748.20;;;26.42
70533;BMP180;58088;51.186;17.130;2023-07-31T13:15:51;99748.80;;;26.44
70533;BMP180;58088;51.186;17.130;2023-07-31T13:18:18;99744.60;;;26.42
70533;BMP180;58088;51.186;17.130;2023-07-31T13:20:44;99742.80;;;26.50
70533;BMP180;58088;51.186;17.130;2023-07-31T13:23:10;99740.80;;;26.50
70533;BMP180;58088;51.186;17.130;2023-07-31T13:25:36;99744.20;;;26.50
70533;BMP180;58088;51.186;17.130;2023-07-31T13:28:03;99739.20;;;26.50
70533;BMP180;58088;51.186;17.130;2023-07-31T13:30:29;99734.80;;;26.50
70533;BMP180;58088;51.186;17.130;2023-07-31T13:32:55;99732.80;;;26.56
70533;BMP180;58088;51.186;17.130;2023-07-31T13:35:21;99730.00;;;26.70
70533;BMP180;58088;51.186;17.130;2023-07-31T13:37:48;99726.00;;;26.80
70533;BMP180;58088;51.186;17.130;2023-07-31T13:40:14;99718.00;;;26.90
70533;BMP180;58088;51.186;17.130;2023-07-31T13:42:40;99719.40;;;26.90
70533;BMP180;58088;51.186;17.130;2023-07-31T13:45:06;99712.00;;;26.96
70533;BMP180;58088;51.186;17.130;2023-07-31T13:47:33;99714.80;;;26.90
70533;BMP180;58088;51.186;17.130;2023-07-31T13:50:00;99716.60;;;26.90
70533;BMP180;58088;51.186;17.130;2023-07-31T13:52:26;99719.60;;;26.90
70533;BMP180;58088;51.186;17.130;2023-07-31T13:54:52;99727.60;;;26.90
70533;BMP180;58088;51.186;17.130;2023-07-31T13:57:18;99719.60;;;26.90
70533;BMP180;58088;51.186;17.130;2023-07-31T13:59:45;99713.40;;;26.90
70533;BMP180;58088;51.186;17.130;2023-07-31T14:02:11;99718.60;;;26.88
70533;BMP180;58088;51.186;17.130;2023-07-31T14:04:37;99716.20;;;26.90
70533;BMP180;58088;51.186;17.130;2023-07-31T14:07:04;99712.00;;;26.90